createdAt,value
2019-04-11T00:04:03.982Z,96.50
2019-04-11T00:06:43.743Z,96.40
2019-04-11T00:09:24.870Z,96.30
2019-04-11T00:12:06.300Z,95.90
2019-04-11T00:14:46.988Z,95.70
2019-04-11T00:17:27.984Z,95.40
2019-04-11T00:20:09.616Z,95.40
2019-04-11T00:22:50.117Z,95.10
2019-04-11T00:25:19.754Z,95.00
2019-04-11T00:31:00.833Z,94.90
2019-04-11T00:33:42.643Z,94.90
2019-04-11T00:36:22.473Z,94.80
2019-04-11T00:39:05.573Z,95.00
2019-04-11T00:41:46.042Z,95.40
2019-04-11T00:44:27.116Z,95.10
2019-04-11T00:47:07.011Z,95.30
2019-04-11T00:49:46.950Z,95.10
2019-04-11T00:52:27.488Z,95.10
2019-04-11T00:55:08.144Z,94.90
2019-04-11T00:57:48.131Z,95.00
2019-04-11T01:00:29.068Z,94.80
2019-04-11T01:03:09.729Z,94.80
2019-04-11T01:05:50.181Z,94.70
2019-04-11T01:08:31.288Z,94.70
2019-04-11T01:11:11.982Z,94.80
2019-04-11T01:13:55.311Z,94.80
2019-04-11T01:19:43.767Z,94.80
2019-04-11T01:22:24.394Z,94.60
2019-04-11T01:25:04.601Z,94.40
2019-04-11T01:27:45.583Z,94.20
2019-04-11T01:30:33.250Z,94.40
2019-04-11T01:33:15.746Z,94.30
2019-04-11T01:35:57.396Z,94.30
2019-04-11T01:38:42.178Z,94.20
2019-04-11T01:41:22.506Z,94.10
2019-04-11T01:44:05.318Z,94.00
2019-04-11T01:46:44.475Z,93.90
2019-04-11T01:49:24.339Z,93.90
2019-04-11T01:52:05.037Z,94.00
2019-04-11T01:54:45.924Z,93.80
2019-04-11T01:57:25.858Z,93.80
2019-04-11T02:00:09.400Z,93.70
2019-04-11T02:09:01.913Z,92.10
2019-04-11T02:11:42.557Z,92.40
2019-04-11T02:14:24.126Z,92.30
2019-04-11T02:17:04.366Z,92.00
2019-04-11T02:19:44.762Z,92.70
2019-04-11T02:22:43.867Z,92.50
2019-04-11T02:25:42.973Z,92.50
2019-04-11T02:28:22.776Z,92.80
2019-04-11T02:31:04.824Z,92.80
2019-04-11T02:33:46.761Z,92.60
2019-04-11T02:36:29.101Z,92.50
2019-04-11T02:39:12.893Z,92.20
2019-04-11T02:41:52.706Z,92.00
2019-04-11T02:44:52.408Z,92.00
2019-04-11T02:47:21.791Z,92.00
2019-04-11T02:49:57.251Z,91.80
2019-04-11T02:52:38.517Z,91.60
2019-04-11T02:55:21.046Z,90.90
2019-04-11T02:58:01.789Z,90.90
2019-04-11T03:00:44.937Z,90.60
2019-04-11T03:03:25.480Z,90.80
2019-04-11T03:05:53.783Z,91.00
2019-04-11T03:08:43.575Z,90.90
2019-04-11T03:11:26.081Z,90.40
2019-04-11T03:14:07.690Z,90.50
2019-04-11T03:16:59.008Z,90.50
2019-04-11T03:19:44.055Z,90.30
2019-04-11T03:22:13.963Z,90.10
2019-04-11T03:24:55.409Z,89.90
2019-04-11T03:27:37.651Z,89.30
2019-04-11T03:30:42.382Z,89.00
2019-04-11T03:36:36.590Z,87.90
2019-04-11T03:38:58.811Z,87.90
2019-04-11T03:41:32.880Z,87.30
2019-04-11T03:44:06.573Z,87.20
2019-04-11T03:46:52.753Z,87.20
2019-04-11T03:49:32.898Z,86.70
2019-04-11T03:52:05.731Z,86.50
2019-04-11T03:54:47.505Z,86.80
2019-04-11T03:57:29.788Z,87.10
2019-04-11T04:00:10.260Z,87.10
2019-04-11T04:02:52.539Z,86.80
2019-04-11T04:05:36.518Z,87.30
2019-04-11T04:08:14.654Z,87.40
2019-04-11T04:11:14.955Z,88.00
2019-04-11T04:14:17.173Z,85.40
2019-04-11T04:17:17.091Z,85.00
2019-04-11T04:23:08.133Z,86.30
2019-04-11T04:25:51.276Z,86.30
2019-04-11T04:28:33.334Z,86.90
2019-04-11T04:31:14.138Z,87.10
2019-04-11T04:33:55.387Z,87.70
2019-04-11T04:36:35.971Z,88.20
2019-04-11T04:39:17.286Z,88.80
2019-04-11T04:42:05.841Z,89.30
2019-04-11T04:44:40.383Z,89.90
2019-04-11T04:47:32.628Z,90.20
2019-04-11T04:50:06.188Z,90.20
2019-04-11T04:52:46.798Z,90.40
2019-04-11T04:55:28.562Z,90.70
2019-04-11T04:58:09.114Z,90.90
2019-04-11T05:00:51.967Z,91.00
2019-04-11T05:03:32.049Z,91.20
2019-04-11T05:06:14.031Z,91.10
2019-04-11T05:08:55.866Z,91.10
2019-04-11T05:11:38.119Z,91.00
2019-04-11T05:14:18.904Z,90.90
2019-04-11T05:16:58.620Z,91.00
2019-04-11T05:19:38.642Z,91.10
2019-04-11T05:22:20.249Z,91.20
2019-04-11T05:25:03.141Z,91.20
2019-04-11T05:27:40.354Z,91.10
2019-04-11T05:30:27.425Z,91.10
2019-04-11T05:33:07.705Z,91.20
2019-04-11T05:35:48.043Z,91.20
2019-04-11T05:38:27.883Z,91.20
2019-04-11T05:41:12.091Z,91.10
2019-04-11T05:46:55.705Z,91.10
2019-04-11T05:52:36.739Z,90.80
2019-04-11T05:55:17.676Z,90.60
2019-04-11T05:57:58.700Z,90.60
2019-04-11T06:00:46.932Z,90.70
2019-04-11T06:03:28.147Z,90.70
2019-04-11T06:06:24.643Z,90.50
2019-04-11T06:09:11.735Z,90.40
2019-04-11T06:12:11.636Z,90.20
2019-04-11T06:14:44.452Z,90.40
2019-04-11T06:17:32.351Z,90.30
2019-04-11T06:20:33.442Z,90.10
2019-04-11T06:23:33.606Z,89.50
2019-04-11T06:26:32.705Z,89.30
2019-04-11T06:29:26.520Z,89.30
2019-04-11T06:32:24.885Z,89.50
2019-04-11T06:35:11.496Z,89.60
2019-04-11T06:38:12.223Z,89.00
2019-04-11T06:50:17.866Z,87.70
2019-04-11T06:58:47.832Z,87.60
2019-04-11T07:01:30.061Z,87.00
2019-04-11T07:07:00.231Z,86.60
2019-04-11T07:10:00.085Z,85.60
2019-04-11T07:12:49.363Z,85.70
2019-04-11T07:15:35.565Z,86.10
2019-04-11T07:18:35.715Z,85.10
2019-04-11T07:21:17.068Z,85.00
2019-04-11T07:24:16.665Z,84.90
2019-04-11T07:27:01.692Z,84.20
2019-04-11T07:30:05.170Z,84.90
2019-04-11T07:32:45.735Z,84.20
2019-04-11T07:35:51.270Z,84.60
2019-04-11T07:38:38.828Z,85.10
2019-04-11T07:41:39.643Z,84.80
2019-04-11T07:47:25.235Z,84.90
2019-04-11T07:50:05.741Z,83.20
2019-04-11T07:52:56.081Z,82.70
2019-04-11T07:55:38.693Z,83.70
2019-04-11T07:58:28.608Z,82.80
2019-04-11T08:04:45.230Z,82.80
2019-04-11T08:14:00.142Z,82.10
2019-04-11T08:16:59.553Z,81.80
2019-04-11T08:19:59.598Z,80.80
2019-04-11T08:22:43.249Z,80.50
2019-04-11T08:31:43.027Z,79.30
2019-04-11T08:34:23.659Z,81.00
2019-04-11T08:37:23.358Z,82.20
2019-04-11T08:40:03.925Z,82.90
2019-04-11T08:43:10.800Z,83.30
2019-04-11T08:45:56.242Z,82.80
2019-04-11T08:48:39.322Z,83.80
2019-04-11T08:51:20.055Z,83.40
2019-04-11T08:54:22.276Z,82.90
2019-04-11T08:57:03.255Z,82.10
2019-04-11T08:59:51.441Z,81.60
2019-04-11T09:02:35.503Z,81.30
2019-04-11T09:05:35.438Z,80.80
2019-04-11T09:08:23.435Z,80.00
2019-04-11T09:11:24.637Z,80.30
2019-04-11T09:14:26.320Z,80.30
2019-04-11T09:17:14.854Z,80.60
2019-04-11T09:20:15.588Z,80.70
2019-04-11T09:23:07.133Z,80.10
2019-04-11T09:28:55.021Z,79.30
2019-04-11T09:37:52.323Z,80.30
2019-04-11T09:40:52.129Z,80.50
2019-04-11T09:43:33.820Z,80.70
2019-04-11T09:46:32.393Z,79.40
2019-04-11T09:52:33.724Z,80.20
2019-04-11T09:55:33.235Z,80.50
2019-04-11T09:58:33.731Z,79.60
2019-04-11T10:01:33.128Z,80.10
2019-04-11T10:04:14.282Z,79.80
2019-04-11T10:07:20.192Z,80.00
2019-04-11T10:10:19.600Z,79.20
2019-04-11T10:13:18.797Z,79.10
2019-04-11T10:16:24.202Z,78.90
2019-04-11T10:22:22.740Z,78.50
2019-04-11T10:25:08.204Z,79.10
2019-04-11T10:28:09.719Z,78.80
2019-04-11T10:31:10.466Z,78.60
2019-04-11T10:34:11.131Z,77.70
2019-04-11T10:37:01.285Z,78.50
2019-04-11T10:40:00.087Z,78.90
2019-04-11T10:42:42.488Z,79.40
2019-04-11T10:45:31.164Z,80.20
2019-04-11T10:48:11.720Z,81.80
2019-04-11T10:51:11.250Z,81.80
2019-04-11T10:53:53.332Z,80.60
2019-04-11T10:56:43.544Z,80.50
2019-04-11T10:59:27.829Z,79.30
2019-04-11T11:02:27.485Z,79.60
2019-04-11T11:05:07.410Z,79.60
2019-04-11T11:07:47.203Z,80.20
2019-04-11T11:10:29.299Z,78.00
2019-04-11T11:13:29.846Z,77.60
2019-04-11T11:16:11.815Z,78.60
2019-04-11T11:19:44.175Z,79.00
2019-04-11T11:22:00.425Z,76.90
2019-04-11T11:25:00.141Z,74.80
2019-04-11T11:27:41.613Z,74.60
2019-04-11T11:30:47.417Z,75.70
2019-04-11T11:33:29.983Z,76.10
2019-04-11T11:36:37.622Z,76.20
2019-04-11T11:39:26.903Z,76.50
2019-04-11T11:42:28.297Z,76.00
2019-04-11T11:45:19.908Z,75.40
2019-04-11T11:48:09.954Z,76.70
2019-04-11T11:50:49.157Z,75.30
2019-04-11T11:53:35.804Z,75.80
2019-04-11T11:56:22.800Z,75.20
2019-04-11T11:59:23.012Z,75.70
2019-04-11T12:02:32.730Z,75.10
2019-04-11T12:05:18.050Z,75.60
2019-04-11T12:08:13.612Z,74.70
2019-04-11T12:10:55.559Z,75.30
2019-04-11T12:13:55.805Z,75.60
2019-04-11T12:17:00.311Z,76.30
2019-04-11T12:20:04.813Z,75.80
2019-04-11T12:22:40.724Z,75.70
2019-04-11T12:25:25.103Z,75.20
2019-04-11T12:28:15.334Z,75.30
2019-04-11T12:31:01.444Z,75.40
2019-04-11T12:34:01.695Z,75.30
2019-04-11T12:36:46.985Z,74.60
2019-04-11T12:39:44.721Z,75.00
2019-04-11T12:42:28.128Z,75.20
2019-04-11T12:45:30.091Z,74.80
2019-04-11T12:48:12.195Z,74.20
2019-04-11T12:51:12.467Z,74.40
2019-04-11T12:53:52.207Z,74.50
2019-04-11T12:56:51.770Z,74.80
2019-04-11T12:59:31.491Z,75.00
2019-04-11T13:02:27.455Z,74.80
2019-04-11T13:05:09.830Z,74.80
2019-04-11T13:08:09.521Z,74.90
2019-04-11T13:10:49.636Z,75.00
2019-04-11T13:13:37.463Z,75.70
2019-04-11T13:16:17.598Z,76.40
2019-04-11T13:19:10.992Z,76.60
2019-04-11T13:21:56.751Z,76.70
2019-04-11T13:24:56.257Z,76.40
2019-04-11T13:27:42.588Z,75.50
2019-04-11T13:30:41.647Z,75.30
2019-04-11T13:33:23.815Z,74.80
2019-04-11T13:36:17.008Z,74.60
2019-04-11T13:38:57.435Z,74.10
2019-04-11T13:44:41.488Z,71.90
2019-04-11T13:47:40.961Z,73.10
2019-04-11T13:50:20.775Z,72.90
2019-04-11T13:56:30.350Z,71.60
2019-04-11T13:59:29.789Z,71.20
2019-04-11T14:02:18.067Z,71.00
2019-04-11T14:04:57.927Z,70.60
2019-04-11T14:07:40.307Z,70.50
2019-04-11T14:10:20.176Z,71.20
2019-04-11T14:13:01.053Z,71.30
2019-04-11T14:15:43.424Z,70.10
2019-04-11T14:18:36.816Z,70.00
2019-04-11T14:21:18.513Z,71.20
2019-04-11T14:27:02.183Z,70.00
2019-04-11T14:29:56.352Z,69.30
2019-04-11T14:32:40.189Z,69.80
2019-04-11T14:35:39.518Z,68.10
2019-04-11T14:38:21.892Z,69.10
2019-04-11T14:41:22.313Z,69.50
2019-04-11T14:44:03.143Z,69.60
2019-04-11T14:47:06.675Z,70.70
2019-04-11T14:49:47.805Z,70.00
2019-04-11T14:52:47.267Z,70.30
2019-04-11T14:55:27.830Z,70.40
2019-04-11T14:58:27.245Z,68.80
2019-04-11T15:01:10.519Z,69.10
2019-04-11T15:04:13.400Z,68.80
2019-04-11T15:06:52.995Z,68.10
2019-04-11T15:09:58.683Z,68.00
2019-04-11T15:12:38.242Z,68.80
2019-04-11T15:15:37.761Z,68.60
2019-04-11T15:18:19.296Z,68.40
2019-04-11T15:21:18.536Z,68.20
2019-04-11T15:23:58.188Z,68.40
2019-04-11T15:26:57.662Z,68.40
2019-04-11T15:29:38.829Z,68.10
2019-04-11T15:32:37.888Z,68.60
2019-04-11T15:35:24.984Z,68.50
2019-04-11T15:38:24.443Z,68.20
2019-04-11T15:41:05.747Z,68.40
2019-04-11T15:44:08.566Z,68.40
2019-04-11T15:46:48.561Z,68.20
2019-04-11T15:49:48.104Z,68.10
2019-04-11T15:52:27.925Z,68.80
2019-04-11T15:55:37.532Z,67.90
2019-04-11T15:58:15.476Z,67.80
2019-04-11T16:01:08.039Z,69.30
2019-04-11T16:03:48.861Z,69.40
2019-04-11T16:06:38.899Z,69.30
2019-04-11T16:09:24.864Z,69.30
2019-04-11T16:12:16.391Z,70.00
2019-04-11T16:14:44.220Z,70.10
2019-04-11T16:17:50.671Z,69.20
2019-04-11T16:20:37.648Z,70.20
2019-04-11T16:23:26.270Z,70.50
2019-04-11T16:26:09.144Z,70.00
2019-04-11T16:29:09.198Z,70.10
2019-04-11T16:31:48.919Z,69.20
2019-04-11T16:34:51.566Z,70.20
2019-04-11T16:37:30.736Z,70.00
2019-04-11T16:40:30.085Z,69.60
2019-04-11T16:43:10.317Z,69.80
2019-04-11T16:46:09.993Z,69.90
2019-04-11T16:48:50.152Z,70.10
2019-04-11T16:51:31.364Z,69.80
2019-04-11T16:54:11.718Z,70.30
2019-04-11T16:56:51.678Z,70.70
2019-04-11T16:59:31.889Z,70.50
2019-04-11T17:02:12.166Z,71.00
2019-04-11T17:04:55.615Z,71.10
2019-04-11T17:10:50.989Z,70.90
2019-04-11T17:13:32.293Z,72.40
2019-04-11T17:16:15.380Z,73.00
2019-04-11T17:18:55.296Z,73.40
2019-04-11T17:21:43.191Z,73.00
2019-04-11T17:24:17.896Z,72.80
2019-04-11T17:26:58.032Z,73.30
2019-04-11T17:29:38.159Z,73.80
2019-04-11T17:32:18.112Z,73.70
2019-04-11T17:35:01.322Z,73.60
2019-04-11T17:37:27.715Z,73.20
2019-04-11T17:40:14.891Z,73.80
2019-04-11T17:43:01.892Z,74.00
2019-04-11T17:45:41.935Z,74.70
2019-04-11T17:48:21.780Z,74.50
2019-04-11T17:50:49.425Z,73.70
2019-04-11T17:53:36.432Z,74.30
2019-04-11T17:56:25.344Z,74.60
2019-04-11T17:59:05.280Z,74.80
2019-04-11T18:01:45.237Z,75.10
2019-04-11T18:04:25.299Z,75.00
2019-04-11T18:07:05.445Z,75.10
2019-04-11T18:09:45.404Z,74.90
2019-04-11T18:12:26.759Z,76.00
2019-04-11T18:15:07.585Z,75.80
2019-04-11T18:17:48.030Z,76.10
2019-04-11T18:20:27.988Z,76.80
2019-04-11T18:23:07.959Z,77.10
2019-04-11T18:25:48.907Z,77.20
2019-04-11T18:28:29.864Z,77.50
2019-04-11T18:31:10.212Z,77.70
2019-04-11T18:33:50.223Z,77.90
2019-04-11T18:39:28.564Z,78.80
2019-04-11T18:42:08.839Z,78.50
2019-04-11T18:44:48.915Z,78.90
2019-04-11T18:47:16.555Z,79.10
2019-04-11T18:50:25.019Z,79.00
2019-04-11T18:53:12.039Z,79.00
2019-04-11T18:55:54.159Z,78.90
2019-04-11T18:58:34.655Z,79.00
2019-04-11T19:01:14.663Z,78.80
2019-04-11T19:03:54.545Z,78.90
2019-04-11T19:06:34.589Z,78.30
2019-04-11T19:09:15.624Z,77.50
2019-04-11T19:11:55.830Z,78.10
2019-04-11T19:17:37.288Z,79.10
2019-04-11T19:20:19.248Z,78.80
2019-04-11T19:22:59.120Z,79.20
2019-04-11T19:25:44.466Z,79.30
2019-04-11T19:28:24.950Z,79.30
2019-04-11T19:31:04.505Z,79.30
2019-04-11T19:33:34.179Z,79.40
2019-04-11T19:36:20.955Z,79.90
2019-04-11T19:39:08.048Z,79.70
2019-04-11T19:41:55.072Z,80.10
2019-04-11T19:44:35.243Z,79.10
2019-04-11T19:47:15.712Z,79.60
2019-04-11T19:49:58.545Z,80.20
2019-04-11T19:52:45.162Z,80.00
2019-04-11T19:58:36.695Z,79.20
2019-04-11T20:01:17.923Z,78.30
2019-04-11T20:03:57.871Z,77.00
2019-04-11T20:06:37.927Z,77.80
2019-04-11T20:09:18.007Z,77.80
2019-04-11T20:11:45.719Z,77.80
2019-04-11T20:14:34.858Z,78.20
2019-04-11T20:17:22.005Z,78.20
2019-04-11T20:20:06.707Z,78.30
2019-04-11T20:22:43.909Z,79.10
2019-04-11T20:25:24.009Z,79.40
2019-04-11T20:28:04.076Z,79.40
2019-04-11T20:30:44.349Z,76.80
2019-04-11T20:33:27.196Z,76.10
2019-04-11T20:36:08.105Z,76.20
2019-04-11T20:38:48.931Z,75.80
2019-04-11T20:41:16.543Z,77.40
2019-04-11T20:44:03.584Z,75.30
2019-04-11T20:46:50.621Z,76.70
2019-04-11T20:49:32.354Z,78.30
2019-04-11T20:57:57.481Z,77.60
2019-04-11T21:00:50.854Z,76.80
2019-04-11T21:03:29.915Z,77.90
2019-04-11T21:06:08.918Z,78.60
2019-04-11T21:08:36.795Z,79.20
2019-04-11T21:11:27.242Z,79.50
2019-04-11T21:14:07.706Z,77.90
2019-04-11T21:16:47.550Z,80.10
2019-04-11T21:19:15.586Z,80.50
2019-04-11T21:22:02.565Z,79.40
2019-04-11T21:24:43.179Z,79.90
2019-04-11T21:27:23.150Z,79.40
2019-04-11T21:30:03.274Z,79.40
2019-04-11T21:32:43.313Z,79.20
2019-04-11T21:35:23.295Z,78.80
2019-04-11T21:38:03.418Z,77.20
2019-04-11T21:40:43.534Z,79.40
2019-04-11T21:43:23.595Z,80.20
2019-04-11T21:46:04.092Z,79.50
2019-04-11T21:48:46.030Z,77.90
2019-04-11T21:51:26.470Z,76.10
2019-04-11T21:54:06.698Z,75.80
2019-04-11T21:56:49.623Z,76.10
2019-04-11T21:59:28.966Z,77.00
2019-04-11T22:02:13.397Z,76.00
2019-04-11T22:04:41.228Z,75.60
2019-04-11T22:07:30.781Z,76.20
2019-04-11T22:10:10.346Z,76.40
2019-04-11T22:12:50.355Z,75.70
2019-04-11T22:15:30.325Z,75.10
2019-04-11T22:18:10.217Z,75.10
2019-04-11T22:20:50.390Z,76.80
2019-04-11T22:23:30.075Z,77.20
2019-04-11T22:26:10.206Z,76.90
2019-04-11T22:32:03.394Z,77.80
2019-04-11T22:34:45.391Z,78.90
2019-04-11T22:37:27.719Z,80.20
2019-04-11T22:40:07.866Z,81.20
2019-04-11T22:42:48.273Z,82.40
2019-04-11T22:45:16.022Z,82.80
2019-04-11T22:48:03.025Z,82.70
2019-04-11T22:50:50.045Z,82.30
2019-04-11T22:53:30.354Z,82.70
2019-04-11T22:56:11.803Z,83.50
2019-04-11T22:58:52.591Z,84.30
2019-04-11T23:01:33.229Z,84.20
2019-04-11T23:04:16.595Z,84.20
2019-04-11T23:06:55.374Z,84.40
2019-04-11T23:09:35.377Z,84.70
2019-04-11T23:12:15.851Z,84.50
2019-04-11T23:14:56.375Z,84.10
2019-04-11T23:17:38.017Z,83.70
2019-04-11T23:20:18.529Z,83.90
2019-04-11T23:22:46.268Z,83.60
2019-04-11T23:25:33.445Z,83.80
2019-04-11T23:28:15.820Z,84.20
2019-04-11T23:30:55.909Z,83.50
2019-04-11T23:33:36.109Z,81.40
2019-04-11T23:36:18.781Z,81.90
2019-04-11T23:38:58.373Z,82.70
2019-04-11T23:41:40.236Z,83.50
2019-04-11T23:44:20.952Z,83.90
2019-04-11T23:46:59.125Z,84.20
2019-04-11T23:49:46.177Z,84.30
2019-04-11T23:52:15.397Z,83.80
2019-04-11T23:55:02.481Z,83.80
2019-04-11T23:57:49.797Z,83.80
